createdAt,value
2023-03-15T00:01:30.320Z,6.38
2023-03-15T00:03:57.649Z,9.80
2023-03-15T00:06:25.314Z,3.10
2023-03-15T00:08:52.522Z,3.78
2023-03-15T00:11:20.105Z,4.95
2023-03-15T00:13:47.741Z,4.07
2023-03-15T00:16:17.642Z,1.80
2023-03-15T00:18:47.139Z,3.03
2023-03-15T00:21:14.684Z,5.18
2023-03-15T00:23:41.966Z,4.78
2023-03-15T00:26:09.263Z,4.20
2023-03-15T00:28:36.632Z,5.25
2023-03-15T00:31:09.432Z,8.20
2023-03-15T00:33:36.838Z,2.83
2023-03-15T00:36:06.089Z,5.10
2023-03-15T00:38:37.316Z,4.32
2023-03-15T00:41:05.970Z,2.88
2023-03-15T00:43:33.668Z,3.45
2023-03-15T00:46:01.017Z,6.53
2023-03-15T00:48:29.262Z,5.15
2023-03-15T00:51:05.458Z,2.35
2023-03-15T00:53:33.164Z,4.90
2023-03-15T00:56:04.585Z,5.97
2023-03-15T00:58:31.849Z,3.67
2023-03-15T01:00:59.155Z,8.57
2023-03-15T01:03:26.485Z,4.43
2023-03-15T01:05:53.799Z,3.08
2023-03-15T01:08:21.037Z,3.45
2023-03-15T01:10:48.367Z,4.55
2023-03-15T01:13:15.661Z,7.07
2023-03-15T01:15:47.058Z,4.05
2023-03-15T01:18:14.628Z,1.65
2023-03-15T01:20:44.876Z,3.45
2023-03-15T01:23:12.578Z,7.00
2023-03-15T01:25:40.587Z,2.85
2023-03-15T01:28:07.945Z,4.78
2023-03-15T01:30:36.026Z,3.33
2023-03-15T01:33:03.482Z,4.95
2023-03-15T01:35:30.987Z,2.83
2023-03-15T01:37:59.219Z,4.65
2023-03-15T01:40:27.179Z,5.50
2023-03-15T01:43:06.920Z,3.50
2023-03-15T01:45:53.118Z,4.30
2023-03-15T01:48:23.801Z,3.65
2023-03-15T01:50:51.359Z,3.83
2023-03-15T01:53:18.757Z,5.05
2023-03-15T01:55:46.073Z,4.10
2023-03-15T02:00:44.454Z,2.55
2023-03-15T02:03:22.008Z,6.93
2023-03-15T02:05:55.117Z,3.78
2023-03-15T02:08:56.761Z,2.05
2023-03-15T02:11:26.438Z,6.95
2023-03-15T02:16:23.671Z,4.25
2023-03-15T02:18:59.610Z,6.13
2023-03-15T02:21:29.965Z,3.78
2023-03-15T02:24:19.077Z,4.22
2023-03-15T02:26:49.308Z,6.60
2023-03-15T02:29:16.698Z,3.53
2023-03-15T02:31:44.674Z,4.80
2023-03-15T02:34:12.304Z,3.58
2023-03-15T02:36:41.633Z,4.78
2023-03-15T02:39:19.365Z,2.63
2023-03-15T02:41:52.631Z,4.03
2023-03-15T02:44:37.986Z,6.68
2023-03-15T02:47:19.013Z,3.58
2023-03-15T02:49:52.011Z,2.50
2023-03-15T02:52:19.338Z,5.70
2023-03-15T02:54:46.611Z,8.38
2023-03-15T02:57:14.450Z,4.43
2023-03-15T02:59:44.856Z,3.17
2023-03-15T03:02:13.492Z,5.25
2023-03-15T03:04:42.695Z,5.65
2023-03-15T03:07:10.295Z,3.25
2023-03-15T03:09:47.484Z,4.05
2023-03-15T03:12:15.499Z,4.70
2023-03-15T03:14:43.367Z,5.97
2023-03-15T03:17:14.974Z,4.78
2023-03-15T03:19:43.022Z,4.32
2023-03-15T03:22:13.406Z,3.67
2023-03-15T03:24:45.854Z,4.78
2023-03-15T03:27:17.318Z,3.90
2023-03-15T03:29:46.767Z,4.32
2023-03-15T03:32:14.825Z,5.55
2023-03-15T03:34:48.279Z,7.85
2023-03-15T03:37:20.156Z,9.48
2023-03-15T03:39:56.193Z,4.38
2023-03-15T03:42:23.656Z,14.85
2023-03-15T03:44:51.161Z,5.80
2023-03-15T03:47:22.165Z,5.55
2023-03-15T03:49:49.541Z,7.07
2023-03-15T03:52:16.977Z,6.93
2023-03-15T03:54:45.278Z,9.43
2023-03-15T03:57:12.725Z,5.97
2023-03-15T03:59:40.799Z,6.28
2023-03-15T04:02:09.581Z,9.65
2023-03-15T04:04:41.319Z,10.75
2023-03-15T04:07:14.538Z,3.42
2023-03-15T04:09:44.216Z,11.38
2023-03-15T04:12:11.590Z,6.82
2023-03-15T04:14:41.851Z,7.75
2023-03-15T04:17:11.361Z,11.38
2023-03-15T04:19:38.875Z,8.27
2023-03-15T04:24:58.088Z,9.15
2023-03-15T04:27:45.873Z,11.85
2023-03-15T04:30:33.180Z,7.95
2023-03-15T04:33:14.048Z,10.73
2023-03-15T04:36:00.010Z,7.55
2023-03-15T04:38:35.477Z,13.32
2023-03-15T04:41:27.050Z,3.90
2023-03-15T04:44:26.657Z,6.47
2023-03-15T04:47:15.832Z,9.55
2023-03-15T04:50:08.948Z,9.98
2023-03-15T04:53:08.613Z,5.65
2023-03-15T04:56:08.562Z,8.32
2023-03-15T04:59:14.072Z,14.20
2023-03-15T05:02:06.110Z,9.98
2023-03-15T05:07:30.912Z,5.03
2023-03-15T05:10:29.795Z,7.57
2023-03-15T05:13:08.984Z,8.32
2023-03-15T05:15:56.817Z,7.57
2023-03-15T05:18:45.247Z,8.50
2023-03-15T05:21:32.676Z,7.65
2023-03-15T05:24:18.428Z,6.57
2023-03-15T05:27:14.137Z,3.63
2023-03-15T05:29:59.247Z,7.53
2023-03-15T05:33:05.045Z,4.28
2023-03-15T05:35:32.422Z,8.35
2023-03-15T05:38:19.548Z,12.13
2023-03-15T05:41:01.833Z,6.45
2023-03-15T05:43:44.967Z,6.20
2023-03-15T05:46:24.503Z,8.48
2023-03-15T05:49:00.214Z,7.75
2023-03-15T05:51:35.617Z,7.45
2023-03-15T05:54:15.974Z,5.65
2023-03-15T05:56:58.104Z,4.68
2023-03-15T05:59:31.669Z,4.57
2023-03-15T06:02:19.239Z,7.53
2023-03-15T06:04:59.862Z,5.03
2023-03-15T06:07:28.315Z,3.97
2023-03-15T06:09:55.909Z,5.55
2023-03-15T06:12:23.426Z,3.35
2023-03-15T06:14:51.440Z,3.08
2023-03-15T06:17:18.909Z,2.55
2023-03-15T06:19:46.433Z,7.10
2023-03-15T06:22:13.711Z,5.72
2023-03-15T06:24:48.299Z,4.47
2023-03-15T06:27:15.959Z,3.03
2023-03-15T06:29:43.306Z,6.40
2023-03-15T06:32:10.703Z,2.80
2023-03-15T06:34:40.670Z,5.90
2023-03-15T06:37:08.159Z,3.65
2023-03-15T06:39:35.595Z,4.80
2023-03-15T06:42:04.371Z,10.80
2023-03-15T06:44:33.585Z,10.20
2023-03-15T06:47:05.262Z,6.85
2023-03-15T06:49:32.749Z,6.63
2023-03-15T06:52:02.439Z,3.95
2023-03-15T06:54:29.809Z,6.32
2023-03-15T06:56:57.204Z,9.00
2023-03-15T06:59:24.931Z,11.57
2023-03-15T07:01:52.347Z,5.45
2023-03-15T07:04:19.666Z,8.65
2023-03-15T07:06:46.959Z,6.38
2023-03-15T07:09:16.464Z,10.85
2023-03-15T07:11:43.807Z,7.15
2023-03-15T07:14:11.107Z,6.43
2023-03-15T07:16:38.454Z,9.35
2023-03-15T07:19:05.887Z,7.93
2023-03-15T07:21:33.223Z,7.13
2023-03-15T07:24:00.531Z,7.40
2023-03-15T07:26:27.916Z,9.77
2023-03-15T07:28:55.239Z,7.95
2023-03-15T07:31:22.936Z,8.15
2023-03-15T07:33:50.328Z,8.50
2023-03-15T07:36:17.653Z,8.55
2023-03-15T07:38:44.956Z,9.30
2023-03-15T07:41:12.310Z,4.68
2023-03-15T07:43:46.314Z,8.32
2023-03-15T07:46:18.527Z,10.32
2023-03-15T07:48:46.602Z,13.55
2023-03-15T07:51:13.857Z,11.20
2023-03-15T07:53:41.211Z,13.02
2023-03-15T07:56:08.535Z,8.40
2023-03-15T07:58:35.868Z,7.68
2023-03-15T08:01:03.510Z,7.85
2023-03-15T08:03:31.544Z,5.57
2023-03-15T08:05:58.878Z,7.72
2023-03-15T08:08:27.914Z,5.82
2023-03-15T08:10:56.064Z,6.55
2023-03-15T08:13:24.346Z,3.33
2023-03-15T08:15:51.706Z,9.07
2023-03-15T08:18:19.152Z,13.48
2023-03-15T08:20:46.477Z,5.55
2023-03-15T08:23:16.434Z,7.55
2023-03-15T08:25:45.123Z,6.60
2023-03-15T08:28:14.632Z,6.20
2023-03-15T08:30:42.144Z,4.80
2023-03-15T08:33:09.795Z,5.55
2023-03-15T08:35:37.420Z,8.02
2023-03-15T08:38:05.028Z,7.32
2023-03-15T08:40:32.526Z,4.35
2023-03-15T08:43:00.346Z,6.78
2023-03-15T08:45:28.062Z,4.47
2023-03-15T08:47:56.955Z,10.75
2023-03-15T08:50:24.430Z,5.63
2023-03-15T08:52:51.871Z,7.65
2023-03-15T08:55:19.310Z,4.47
2023-03-15T08:57:46.615Z,8.18
2023-03-15T09:00:22.642Z,4.55
2023-03-15T09:02:52.015Z,6.22
2023-03-15T09:07:46.909Z,6.53
2023-03-15T09:10:15.531Z,5.15
2023-03-15T09:12:43.637Z,5.88
2023-03-15T09:15:12.007Z,5.03
2023-03-15T09:17:39.776Z,7.43
2023-03-15T09:20:11.333Z,4.15
2023-03-15T09:22:39.884Z,3.22
2023-03-15T09:25:08.271Z,4.60
2023-03-15T09:27:35.610Z,11.45
2023-03-15T09:30:04.097Z,7.28
2023-03-15T09:32:36.320Z,8.13
2023-03-15T09:35:08.047Z,6.57
2023-03-15T09:37:35.588Z,7.20
2023-03-15T09:40:04.255Z,4.35
2023-03-15T09:42:37.700Z,7.00
2023-03-15T09:45:15.698Z,8.88
2023-03-15T09:47:51.739Z,5.00
2023-03-15T09:50:26.836Z,4.00
2023-03-15T09:53:07.191Z,5.97
2023-03-15T09:55:34.518Z,6.63
2023-03-15T09:58:03.466Z,4.25
2023-03-15T10:00:39.858Z,4.88
2023-03-15T10:03:09.887Z,7.60
2023-03-15T10:05:42.464Z,6.15
2023-03-15T10:08:11.630Z,4.72
2023-03-15T10:13:24.953Z,4.78
2023-03-15T10:16:24.651Z,7.72
2023-03-15T10:19:21.534Z,7.80
2023-03-15T10:22:04.447Z,8.80
2023-03-15T10:24:31.732Z,6.22
2023-03-15T10:27:00.781Z,8.40
2023-03-15T10:29:28.716Z,6.82
2023-03-15T10:31:56.162Z,8.52
2023-03-15T10:34:26.125Z,4.63
2023-03-15T10:36:55.208Z,4.38
2023-03-15T10:39:23.378Z,9.10
2023-03-15T10:41:51.483Z,4.78
2023-03-15T10:44:24.123Z,8.05
2023-03-15T10:47:23.553Z,4.53
2023-03-15T10:49:56.270Z,4.85
2023-03-15T10:52:26.624Z,5.10
2023-03-15T10:54:58.712Z,5.57
2023-03-15T10:57:34.507Z,4.93
2023-03-15T11:00:06.921Z,12.63
2023-03-15T11:02:34.283Z,9.80
2023-03-15T11:05:03.658Z,6.88
2023-03-15T11:07:35.139Z,8.93
2023-03-15T11:10:04.216Z,6.68
2023-03-15T11:12:33.367Z,5.72
2023-03-15T11:17:29.965Z,5.65
2023-03-15T11:20:13.138Z,2.97
2023-03-15T11:22:41.249Z,4.00
2023-03-15T11:25:15.308Z,6.13
2023-03-15T11:27:51.918Z,3.35
2023-03-15T11:30:19.763Z,5.47
2023-03-15T11:32:47.662Z,4.70
2023-03-15T11:35:16.400Z,4.03
2023-03-15T11:37:47.911Z,5.65
2023-03-15T11:40:22.340Z,4.07
2023-03-15T11:42:55.666Z,6.13
2023-03-15T11:45:37.592Z,6.20
2023-03-15T11:48:36.451Z,5.80
2023-03-15T11:51:03.904Z,2.78
2023-03-15T11:53:36.594Z,3.72
2023-03-15T11:56:20.589Z,4.22
2023-03-15T11:59:02.071Z,3.20
2023-03-15T12:01:29.404Z,2.88
2023-03-15T12:04:15.895Z,4.43
2023-03-15T12:06:43.348Z,3.17
2023-03-15T12:09:29.612Z,4.15
2023-03-15T12:12:04.707Z,4.63
2023-03-15T12:14:35.956Z,4.93
2023-03-15T12:17:22.137Z,5.15
2023-03-15T12:19:53.102Z,3.33
2023-03-15T12:22:20.784Z,4.70
2023-03-15T12:24:48.823Z,2.50
2023-03-15T12:27:17.698Z,3.67
2023-03-15T12:29:45.937Z,4.60
2023-03-15T12:32:14.341Z,4.00
2023-03-15T12:34:45.044Z,4.10
2023-03-15T12:37:18.049Z,4.28
2023-03-15T12:39:45.385Z,4.97
2023-03-15T12:42:32.976Z,4.68
2023-03-15T12:45:18.780Z,4.75
2023-03-15T12:47:52.320Z,3.60
2023-03-15T12:50:39.842Z,5.25
2023-03-15T12:53:26.061Z,8.75
2023-03-15T12:55:59.548Z,9.20
2023-03-15T12:58:37.495Z,6.35
2023-03-15T13:01:06.737Z,7.00
2023-03-15T13:03:35.983Z,4.65
2023-03-15T13:06:10.414Z,5.78
2023-03-15T13:08:56.169Z,4.10
2023-03-15T13:11:26.481Z,8.63
2023-03-15T13:14:20.186Z,5.05
2023-03-15T13:17:02.927Z,4.45
2023-03-15T13:19:38.225Z,4.18
2023-03-15T13:22:24.350Z,4.63
2023-03-15T13:25:04.557Z,6.55
2023-03-15T13:27:38.682Z,3.53
2023-03-15T13:30:26.305Z,7.25
2023-03-15T13:33:06.358Z,3.90
2023-03-15T13:35:34.521Z,3.88
2023-03-15T13:38:22.265Z,3.25
2023-03-15T13:40:49.719Z,4.78
2023-03-15T13:43:17.089Z,4.47
2023-03-15T13:45:44.844Z,3.67
2023-03-15T13:48:13.409Z,3.72
2023-03-15T13:50:41.129Z,2.60
2023-03-15T13:53:08.652Z,3.67
2023-03-15T13:55:37.212Z,6.68
2023-03-15T13:58:08.936Z,4.78
2023-03-15T14:00:37.176Z,4.63
2023-03-15T14:03:09.254Z,6.60
2023-03-15T14:05:44.554Z,6.68
2023-03-15T14:08:21.997Z,4.30
2023-03-15T14:11:02.050Z,5.25
2023-03-15T14:13:32.108Z,7.53
2023-03-15T14:16:06.952Z,6.28
2023-03-15T14:18:38.936Z,5.90
2023-03-15T14:21:09.489Z,6.20
2023-03-15T14:23:40.685Z,5.60
2023-03-15T14:26:22.268Z,5.13
2023-03-15T14:28:56.130Z,5.50
2023-03-15T14:31:24.580Z,6.72
2023-03-15T14:33:54.335Z,4.97
2023-03-15T14:36:23.415Z,5.22
2023-03-15T14:38:54.785Z,4.20
2023-03-15T14:41:28.184Z,3.67
2023-03-15T14:43:55.524Z,6.70
2023-03-15T14:46:22.834Z,4.00
2023-03-15T14:48:51.110Z,6.65
2023-03-15T14:51:19.840Z,5.30
2023-03-15T14:53:49.173Z,3.83
2023-03-15T14:56:18.134Z,4.10
2023-03-15T14:58:46.966Z,5.45
2023-03-15T15:01:15.568Z,2.72
2023-03-15T15:03:44.569Z,3.97
2023-03-15T15:06:13.915Z,4.10
2023-03-15T15:08:43.433Z,3.70
2023-03-15T15:11:13.144Z,5.13
2023-03-15T15:13:41.152Z,3.00
2023-03-15T15:16:08.801Z,4.35
2023-03-15T15:18:37.072Z,3.80
2023-03-15T15:21:13.299Z,4.88
2023-03-15T15:23:57.008Z,3.03
2023-03-15T15:26:26.324Z,3.65
2023-03-15T15:28:54.019Z,3.10
2023-03-15T15:31:25.705Z,4.82
2023-03-15T15:33:54.022Z,3.45
2023-03-15T15:36:21.498Z,3.75
2023-03-15T15:38:49.703Z,7.35
2023-03-15T15:41:20.281Z,2.20
2023-03-15T15:43:47.542Z,2.75
2023-03-15T15:46:15.047Z,4.63
2023-03-15T15:48:42.697Z,4.38
2023-03-15T15:51:16.535Z,3.83
2023-03-15T15:53:43.864Z,3.22
2023-03-15T15:56:14.965Z,2.70
2023-03-15T15:58:42.827Z,3.05
2023-03-15T16:01:14.164Z,5.35
2023-03-15T16:03:42.110Z,2.55
2023-03-15T16:06:19.986Z,3.13
2023-03-15T16:08:48.258Z,2.67
2023-03-15T16:11:16.955Z,5.95
2023-03-15T16:13:45.497Z,3.25
2023-03-15T16:16:16.867Z,2.85
2023-03-15T16:18:44.873Z,4.38
2023-03-15T16:21:16.038Z,4.10
2023-03-15T16:23:44.046Z,3.20
2023-03-15T16:26:14.346Z,2.75
2023-03-15T16:28:41.722Z,3.30
2023-03-15T16:31:09.151Z,2.90
2023-03-15T16:33:36.751Z,5.70
2023-03-15T16:36:04.383Z,4.85
2023-03-15T16:38:32.418Z,4.70
2023-03-15T16:41:01.337Z,4.25
2023-03-15T16:43:28.918Z,3.17
2023-03-15T16:45:56.290Z,2.42
2023-03-15T16:48:23.699Z,3.45
2023-03-15T16:50:51.807Z,2.97
2023-03-15T16:53:19.841Z,5.35
2023-03-15T16:55:47.093Z,4.68
2023-03-15T16:58:16.439Z,3.72
2023-03-15T17:03:12.957Z,9.60
2023-03-15T17:05:41.519Z,2.58
2023-03-15T17:08:12.196Z,3.75
2023-03-15T17:10:41.388Z,5.10
2023-03-15T17:15:36.196Z,4.13
2023-03-15T17:18:04.675Z,22.15
2023-03-15T17:20:32.144Z,6.57
2023-03-15T17:23:04.046Z,8.20
2023-03-15T17:25:33.124Z,3.92
2023-03-15T17:28:00.471Z,14.73
2023-03-15T17:30:30.072Z,15.63
2023-03-15T17:35:28.477Z,19.48
2023-03-15T17:37:56.452Z,8.60
2023-03-15T17:40:28.329Z,8.15
2023-03-15T17:42:57.256Z,15.65
2023-03-15T17:45:26.694Z,7.78
2023-03-15T17:47:54.527Z,7.13
2023-03-15T17:50:23.521Z,9.68
2023-03-15T17:55:20.215Z,13.05
2023-03-15T17:57:54.648Z,5.47
2023-03-15T18:00:23.917Z,5.97
2023-03-15T18:02:56.331Z,18.50
2023-03-15T18:05:26.330Z,9.00
2023-03-15T18:07:59.007Z,9.43
2023-03-15T18:10:28.325Z,12.70
2023-03-15T18:12:56.151Z,8.50
2023-03-15T18:15:24.320Z,6.07
2023-03-15T18:17:52.354Z,5.60
2023-03-15T18:20:24.375Z,10.57
2023-03-15T18:22:52.627Z,9.85
2023-03-15T18:25:27.574Z,9.23
2023-03-15T18:27:55.158Z,9.88
2023-03-15T18:30:24.052Z,11.20
2023-03-15T18:32:52.308Z,9.18
2023-03-15T18:35:24.501Z,10.70
2023-03-15T18:37:54.165Z,8.00
2023-03-15T18:42:48.916Z,11.70
2023-03-15T18:45:19.040Z,22.95
2023-03-15T18:51:21.597Z,19.10
2023-03-15T18:54:01.964Z,10.68
2023-03-15T18:59:53.339Z,16.30
2023-03-15T19:03:17.853Z,26.88
2023-03-15T19:05:59.510Z,15.07
2023-03-15T19:09:19.975Z,15.85
2023-03-15T19:12:42.551Z,21.27
2023-03-15T19:15:25.135Z,32.92
2023-03-15T19:21:01.095Z,12.73
2023-03-15T19:27:04.777Z,21.33
2023-03-15T19:30:13.681Z,23.90
2023-03-15T19:33:15.032Z,25.48
2023-03-15T19:36:14.469Z,9.55
2023-03-15T19:43:57.371Z,16.15
2023-03-15T19:46:08.848Z,12.57
2023-03-15T19:49:05.678Z,12.57
2023-03-15T19:51:38.081Z,34.35
2023-03-15T19:54:25.908Z,18.10
2023-03-15T19:57:15.778Z,11.98
2023-03-15T20:00:56.176Z,32.80
2023-03-15T20:03:39.028Z,12.20
2023-03-15T20:06:46.962Z,12.35
2023-03-15T20:16:29.817Z,12.05
2023-03-15T20:19:35.533Z,11.77
2023-03-15T20:22:18.793Z,13.27
2023-03-15T20:25:01.867Z,10.48
2023-03-15T20:28:00.182Z,17.42
2023-03-15T20:34:03.316Z,11.57
2023-03-15T20:37:30.673Z,9.20
2023-03-15T20:41:02.019Z,9.50
2023-03-15T20:46:58.984Z,9.52
2023-03-15T20:50:04.659Z,8.93
2023-03-15T20:53:02.423Z,8.77
2023-03-15T20:59:07.197Z,10.00
2023-03-15T21:01:46.837Z,11.32
2023-03-15T21:09:11.644Z,9.55
2023-03-15T21:12:18.618Z,10.75
2023-03-15T21:15:09.841Z,8.55
2023-03-15T21:17:44.119Z,12.40
2023-03-15T21:20:45.607Z,10.73
2023-03-15T21:28:26.749Z,11.00
2023-03-15T21:31:53.046Z,16.63
2023-03-15T21:35:09.721Z,14.20
2023-03-15T21:50:51.861Z,12.15
2023-03-15T21:53:54.368Z,15.70
2023-03-15T21:56:54.774Z,12.02
2023-03-15T21:59:31.892Z,15.48
2023-03-15T22:02:59.893Z,11.40
2023-03-15T22:06:15.551Z,11.48
2023-03-15T22:08:49.275Z,10.77
2023-03-15T22:14:19.277Z,10.07
2023-03-15T22:17:38.081Z,9.32
2023-03-15T22:20:33.766Z,12.00
2023-03-15T22:23:43.279Z,11.00
2023-03-15T22:29:50.194Z,10.38
2023-03-15T22:32:47.302Z,10.63
2023-03-15T22:39:05.472Z,10.95
2023-03-15T22:41:54.617Z,11.98
2023-03-15T22:44:47.200Z,9.02
2023-03-15T22:47:28.160Z,8.80
2023-03-15T22:50:16.549Z,10.98
2023-03-15T22:59:02.830Z,10.82
2023-03-15T23:01:59.327Z,10.68
2023-03-15T23:06:56.446Z,8.60
2023-03-15T23:09:50.444Z,8.80
2023-03-15T23:12:43.586Z,9.30
2023-03-15T23:15:19.155Z,9.73
2023-03-15T23:18:10.675Z,9.07
2023-03-15T23:20:56.958Z,10.00
2023-03-15T23:23:36.993Z,10.30
2023-03-15T23:26:55.826Z,9.02
2023-03-15T23:33:23.914Z,9.57
2023-03-15T23:36:52.188Z,10.45
2023-03-15T23:39:30.960Z,10.63
2023-03-15T23:42:37.634Z,10.93
2023-03-15T23:49:19.435Z,11.75
2023-03-15T23:57:34.295Z,9.80
